Legend :    VFR   Marginal VFR   IFR   Intensive IFR   Very Intensive IFR
Visi :
Ceiling :
>= 8 km
>= 3000ft
5 to 8 km
1000 to 3000 ft
1500m to 5 km
500 to 1000 ft
800 to 1500m
200 to 500 ft
< 800m
< 200 ft
Symbols :   Thunderstorms  Fog  Heavy snow  Heavy precipitations  Wind > 20 kt
SIGMETs :     Misc.  Thunderstorms  Icing  Turbulence  Mountain Waves  Volcanic Ashes







- Airport Elevation : 876 ft
- IATA code : MBX


LJMB - Maribor

CURRENT METAR :
  • 201430Z 17005KT 130V190 9999 FEW030 18/10 Q1024

EXPIRED METARs :
  • 201400Z 16003KT 120V200 9999 FEW030 19/10 Q1024
  • 201330Z 15005KT 9999 FEW030 19/09 Q1024
  • 201300Z VRB02KT 9999 FEW030 19/09 Q1024
  • 201230Z VRB02KT 9999 FEW033 18/10 Q1025
  • 201200Z 09001KT 9999 FEW030 18/10 Q1025

TAF TAF LJMB
Valid from the 20 at 15:00 until the 21 at 15:00 UTC


201400Z 2015/2115 VRB02KT 9999 FEW040
BECMG 2016/2018 36003KT CAVOK
BECMG 2019/2021 SCT040 BKN060
TEMPO 2100/2109 7000 -RA BKN035 OVC060
BECMG 2100/2103 02005KT
TEMPO 2109/2115 01010KT BKN035
No reported NOTAMs for that airfield.


LOGIN :  

Disclaimer |     EN      FR      IT 



MET'MAP, your aeronautical weather chart ! - Copyright ORBIFLY December 2007 - Disclaimer


ORBIFLY MET'MAP TEAM :

Programming & Development : Alexandra Zaïnal
Concept & Development : Baudouin d'Aumeries
Co-Development & Prog : Marc-Olivier Méhu
Technical & hardware support : Manuel Goepfert

Contact : metmap@orbifly.com




SOURCES & CREDITS :

   NOAA